sensor_id;sensor_type;location;lat;lon;timestamp;P1;durP1;ratioP1;P2;durP2;ratioP2
14381;SDS011;7275;50.328;8.720;2022-09-13T00:02:01;3.10;;;2.90;;
14381;SDS011;7275;50.328;8.720;2022-09-13T00:04:30;3.27;;;2.97;;
14381;SDS011;7275;50.328;8.720;2022-09-13T00:06:58;2.87;;;2.67;;
14381;SDS011;7275;50.328;8.720;2022-09-13T00:09:25;3.63;;;3.20;;
14381;SDS011;7275;50.328;8.720;2022-09-13T00:11:53;3.13;;;2.90;;
14381;SDS011;7275;50.328;8.720;2022-09-13T00:14:20;3.43;;;3.17;;
14381;SDS011;7275;50.328;8.720;2022-09-13T00:16:47;3.00;;;2.80;;
14381;SDS011;7275;50.328;8.720;2022-09-13T00:19:15;3.07;;;2.77;;
14381;SDS011;7275;50.328;8.720;2022-09-13T00:21:44;3.30;;;2.93;;
14381;SDS011;7275;50.328;8.720;2022-09-13T00:24:12;2.97;;;2.77;;
14381;SDS011;7275;50.328;8.720;2022-09-13T00:26:39;3.00;;;2.80;;
14381;SDS011;7275;50.328;8.720;2022-09-13T00:29:06;2.87;;;2.67;;
14381;SDS011;7275;50.328;8.720;2022-09-13T00:31:34;2.90;;;2.60;;
14381;SDS011;7275;50.328;8.720;2022-09-13T00:34:01;2.90;;;2.70;;
14381;SDS011;7275;50.328;8.720;2022-09-13T00:36:29;3.30;;;3.00;;
14381;SDS011;7275;50.328;8.720;2022-09-13T00:38:58;3.80;;;2.77;;
14381;SDS011;7275;50.328;8.720;2022-09-13T00:41:25;3.27;;;2.97;;
14381;SDS011;7275;50.328;8.720;2022-09-13T00:43:54;2.87;;;2.67;;
14381;SDS011;7275;50.328;8.720;2022-09-13T00:46:24;3.37;;;3.07;;
14381;SDS011;7275;50.328;8.720;2022-09-13T00:48:59;3.57;;;2.67;;
14381;SDS011;7275;50.328;8.720;2022-09-13T00:51:29;2.90;;;2.70;;
14381;SDS011;7275;50.328;8.720;2022-09-13T00:53:59;2.80;;;2.60;;
14381;SDS011;7275;50.328;8.720;2022-09-13T00:56:29;2.83;;;2.63;;
14381;SDS011;7275;50.328;8.720;2022-09-13T00:59:02;3.10;;;2.80;;
14381;SDS011;7275;50.328;8.720;2022-09-13T01:01:34;3.33;;;3.03;;
14381;SDS011;7275;50.328;8.720;2022-09-13T01:04:06;3.13;;;2.93;;
14381;SDS011;7275;50.328;8.720;2022-09-13T01:06:37;3.47;;;3.17;;
14381;SDS011;7275;50.328;8.720;2022-09-13T01:09:09;3.43;;;2.83;;
14381;SDS011;7275;50.328;8.720;2022-09-13T01:11:39;3.93;;;3.63;;
14381;SDS011;7275;50.328;8.720;2022-09-13T01:14:12;3.37;;;3.07;;
14381;SDS011;7275;50.328;8.720;2022-09-13T01:16:40;3.63;;;3.30;;
14381;SDS011;7275;50.328;8.720;2022-09-13T01:19:13;3.43;;;3.13;;
14381;SDS011;7275;50.328;8.720;2022-09-13T01:22:01;3.63;;;3.20;;
14381;SDS011;7275;50.328;8.720;2022-09-13T01:27:55;3.27;;;2.97;;
14381;SDS011;7275;50.328;8.720;2022-09-13T01:30:37;3.63;;;3.33;;
14381;SDS011;7275;50.328;8.720;2022-09-13T01:33:13;3.40;;;3.10;;
14381;SDS011;7275;50.328;8.720;2022-09-13T01:35:55;2.80;;;2.60;;
14381;SDS011;7275;50.328;8.720;2022-09-13T01:38:49;3.20;;;2.80;;
14381;SDS011;7275;50.328;8.720;2022-09-13T01:41:28;3.23;;;2.93;;
14381;SDS011;7275;50.328;8.720;2022-09-13T01:44:12;3.07;;;2.87;;
14381;SDS011;7275;50.328;8.720;2022-09-13T01:46:54;3.27;;;3.00;;
14381;SDS011;7275;50.328;8.720;2022-09-13T01:49:30;3.53;;;2.83;;
14381;SDS011;7275;50.328;8.720;2022-09-13T01:52:10;3.47;;;3.17;;
14381;SDS011;7275;50.328;8.720;2022-09-13T01:54:46;3.70;;;2.80;;
14381;SDS011;7275;50.328;8.720;2022-09-13T01:57:20;3.40;;;3.10;;
14381;SDS011;7275;50.328;8.720;2022-09-13T01:59:56;3.40;;;3.10;;
14381;SDS011;7275;50.328;8.720;2022-09-13T02:02:30;4.73;;;3.13;;
14381;SDS011;7275;50.328;8.720;2022-09-13T02:05:03;3.27;;;3.03;;
14381;SDS011;7275;50.328;8.720;2022-09-13T02:07:41;3.27;;;3.00;;
14381;SDS011;7275;50.328;8.720;2022-09-13T02:10:13;3.93;;;3.53;;
14381;SDS011;7275;50.328;8.720;2022-09-13T02:12:45;3.77;;;3.47;;
14381;SDS011;7275;50.328;8.720;2022-09-13T02:15:15;3.87;;;3.47;;
14381;SDS011;7275;50.328;8.720;2022-09-13T02:17:47;3.73;;;3.43;;
14381;SDS011;7275;50.328;8.720;2022-09-13T02:20:21;3.40;;;3.10;;
14381;SDS011;7275;50.328;8.720;2022-09-13T02:22:54;3.87;;;3.57;;
14381;SDS011;7275;50.328;8.720;2022-09-13T02:25:25;3.43;;;3.00;;
14381;SDS011;7275;50.328;8.720;2022-09-13T02:27:54;3.50;;;3.20;;
14381;SDS011;7275;50.328;8.720;2022-09-13T02:30:26;3.43;;;3.13;;
14381;SDS011;7275;50.328;8.720;2022-09-13T02:32:59;3.30;;;3.00;;
14381;SDS011;7275;50.328;8.720;2022-09-13T02:35:31;3.53;;;3.23;;
14381;SDS011;7275;50.328;8.720;2022-09-13T02:38:03;3.80;;;3.50;;
14381;SDS011;7275;50.328;8.720;2022-09-13T02:40:33;3.90;;;3.60;;
14381;SDS011;7275;50.328;8.720;2022-09-13T02:43:07;3.57;;;3.23;;
14381;SDS011;7275;50.328;8.720;2022-09-13T02:45:40;3.40;;;3.10;;
14381;SDS011;7275;50.328;8.720;2022-09-13T02:48:15;4.20;;;3.80;;
14381;SDS011;7275;50.328;8.720;2022-09-13T02:50:53;3.57;;;3.27;;
14381;SDS011;7275;50.328;8.720;2022-09-13T02:53:26;3.60;;;3.30;;
14381;SDS011;7275;50.328;8.720;2022-09-13T02:56:00;3.67;;;3.37;;
14381;SDS011;7275;50.328;8.720;2022-09-13T02:58:38;3.70;;;3.40;;
14381;SDS011;7275;50.328;8.720;2022-09-13T03:01:12;3.50;;;3.20;;
14381;SDS011;7275;50.328;8.720;2022-09-13T03:03:41;3.40;;;3.10;;
14381;SDS011;7275;50.328;8.720;2022-09-13T03:06:09;3.63;;;3.33;;
14381;SDS011;7275;50.328;8.720;2022-09-13T03:08:37;4.00;;;3.70;;
14381;SDS011;7275;50.328;8.720;2022-09-13T03:11:07;4.03;;;3.70;;
14381;SDS011;7275;50.328;8.720;2022-09-13T03:13:42;4.43;;;4.03;;
14381;SDS011;7275;50.328;8.720;2022-09-13T03:16:27;4.47;;;4.07;;
14381;SDS011;7275;50.328;8.720;2022-09-13T03:19:10;3.87;;;3.47;;
14381;SDS011;7275;50.328;8.720;2022-09-13T03:22:01;3.97;;;3.63;;
14381;SDS011;7275;50.328;8.720;2022-09-13T03:24:46;3.70;;;3.40;;
14381;SDS011;7275;50.328;8.720;2022-09-13T03:27:20;4.27;;;3.90;;
14381;SDS011;7275;50.328;8.720;2022-09-13T03:29:56;4.20;;;3.80;;
14381;SDS011;7275;50.328;8.720;2022-09-13T03:32:28;4.47;;;4.07;;
14381;SDS011;7275;50.328;8.720;2022-09-13T03:35:06;3.80;;;3.50;;
14381;SDS011;7275;50.328;8.720;2022-09-13T03:37:44;3.90;;;3.60;;
14381;SDS011;7275;50.328;8.720;2022-09-13T03:40:20;3.87;;;3.57;;
14381;SDS011;7275;50.328;8.720;2022-09-13T03:42:53;4.33;;;4.00;;
14381;SDS011;7275;50.328;8.720;2022-09-13T03:45:26;4.33;;;3.70;;
14381;SDS011;7275;50.328;8.720;2022-09-13T03:47:56;4.33;;;4.00;;
14381;SDS011;7275;50.328;8.720;2022-09-13T03:50:25;4.43;;;4.03;;
14381;SDS011;7275;50.328;8.720;2022-09-13T03:52:54;4.10;;;3.80;;
14381;SDS011;7275;50.328;8.720;2022-09-13T03:55:26;3.83;;;3.53;;
14381;SDS011;7275;50.328;8.720;2022-09-13T03:57:55;4.10;;;3.80;;
14381;SDS011;7275;50.328;8.720;2022-09-13T04:00:22;4.37;;;3.97;;
14381;SDS011;7275;50.328;8.720;2022-09-13T04:02:50;4.40;;;4.10;;
14381;SDS011;7275;50.328;8.720;2022-09-13T04:05:17;3.97;;;3.67;;
14381;SDS011;7275;50.328;8.720;2022-09-13T04:07:46;3.90;;;3.60;;
14381;SDS011;7275;50.328;8.720;2022-09-13T04:10:14;4.37;;;3.80;;
14381;SDS011;7275;50.328;8.720;2022-09-13T04:12:41;4.33;;;3.93;;
14381;SDS011;7275;50.328;8.720;2022-09-13T04:15:09;4.40;;;4.00;;
14381;SDS011;7275;50.328;8.720;2022-09-13T04:17:36;3.83;;;3.53;;
14381;SDS011;7275;50.328;8.720;2022-09-13T04:20:04;4.60;;;4.20;;
14381;SDS011;7275;50.328;8.720;2022-09-13T04:22:32;3.90;;;3.60;;
14381;SDS011;7275;50.328;8.720;2022-09-13T04:25:01;4.33;;;3.93;;
14381;SDS011;7275;50.328;8.720;2022-09-13T04:27:28;4.63;;;3.97;;
14381;SDS011;7275;50.328;8.720;2022-09-13T04:29:55;4.20;;;3.83;;
14381;SDS011;7275;50.328;8.720;2022-09-13T04:32:23;4.13;;;3.77;;
14381;SDS011;7275;50.328;8.720;2022-09-13T04:34:51;4.60;;;4.20;;
14381;SDS011;7275;50.328;8.720;2022-09-13T04:37:18;4.30;;;3.90;;
14381;SDS011;7275;50.328;8.720;2022-09-13T04:39:46;4.30;;;3.90;;
14381;SDS011;7275;50.328;8.720;2022-09-13T04:42:15;4.90;;;4.00;;
14381;SDS011;7275;50.328;8.720;2022-09-13T04:44:44;5.03;;;4.33;;
14381;SDS011;7275;50.328;8.720;2022-09-13T04:47:11;3.80;;;3.50;;
14381;SDS011;7275;50.328;8.720;2022-09-13T04:49:39;4.10;;;3.77;;
14381;SDS011;7275;50.328;8.720;2022-09-13T04:52:06;3.67;;;3.37;;
14381;SDS011;7275;50.328;8.720;2022-09-13T04:54:34;4.17;;;3.70;;
14381;SDS011;7275;50.328;8.720;2022-09-13T04:57:01;4.73;;;3.90;;
14381;SDS011;7275;50.328;8.720;2022-09-13T04:59:30;4.27;;;3.87;;
14381;SDS011;7275;50.328;8.720;2022-09-13T05:01:58;3.90;;;3.60;;
14381;SDS011;7275;50.328;8.720;2022-09-13T05:04:25;3.97;;;3.57;;
14381;SDS011;7275;50.328;8.720;2022-09-13T05:06:53;4.77;;;4.37;;
14381;SDS011;7275;50.328;8.720;2022-09-13T05:09:21;4.27;;;3.87;;
14381;SDS011;7275;50.328;8.720;2022-09-13T05:11:48;4.80;;;4.40;;
14381;SDS011;7275;50.328;8.720;2022-09-13T05:14:16;4.40;;;4.07;;
14381;SDS011;7275;50.328;8.720;2022-09-13T05:16:45;5.90;;;4.40;;
14381;SDS011;7275;50.328;8.720;2022-09-13T05:19:12;4.30;;;3.83;;
14381;SDS011;7275;50.328;8.720;2022-09-13T05:21:39;4.40;;;4.00;;
14381;SDS011;7275;50.328;8.720;2022-09-13T05:24:07;4.60;;;4.20;;
14381;SDS011;7275;50.328;8.720;2022-09-13T05:26:35;6.63;;;4.30;;
14381;SDS011;7275;50.328;8.720;2022-09-13T05:29:03;4.57;;;4.17;;
14381;SDS011;7275;50.328;8.720;2022-09-13T05:31:31;4.87;;;4.47;;
14381;SDS011;7275;50.328;8.720;2022-09-13T05:34:03;4.80;;;4.30;;
14381;SDS011;7275;50.328;8.720;2022-09-13T05:36:32;5.40;;;4.57;;
14381;SDS011;7275;50.328;8.720;2022-09-13T05:39:00;4.53;;;4.10;;
14381;SDS011;7275;50.328;8.720;2022-09-13T05:41:47;5.23;;;4.43;;
14381;SDS011;7275;50.328;8.720;2022-09-13T05:44:15;5.23;;;4.73;;
14381;SDS011;7275;50.328;8.720;2022-09-13T05:46:45;5.60;;;5.10;;
14381;SDS011;7275;50.328;8.720;2022-09-13T05:49:14;5.60;;;5.10;;
14381;SDS011;7275;50.328;8.720;2022-09-13T05:51:42;5.50;;;5.00;;
14381;SDS011;7275;50.328;8.720;2022-09-13T05:54:10;5.40;;;4.90;;
14381;SDS011;7275;50.328;8.720;2022-09-13T05:56:38;6.40;;;5.50;;
14381;SDS011;7275;50.328;8.720;2022-09-13T05:59:05;7.33;;;6.27;;
14381;SDS011;7275;50.328;8.720;2022-09-13T06:01:33;6.43;;;5.80;;
14381;SDS011;7275;50.328;8.720;2022-09-13T06:04:01;7.10;;;5.80;;
14381;SDS011;7275;50.328;8.720;2022-09-13T06:06:31;6.47;;;5.47;;
14381;SDS011;7275;50.328;8.720;2022-09-13T06:08:58;6.20;;;5.57;;
14381;SDS011;7275;50.328;8.720;2022-09-13T06:11:26;5.70;;;5.20;;
14381;SDS011;7275;50.328;8.720;2022-09-13T06:13:53;6.40;;;5.80;;
14381;SDS011;7275;50.328;8.720;2022-09-13T06:16:20;6.73;;;6.07;;
14381;SDS011;7275;50.328;8.720;2022-09-13T06:18:48;6.50;;;5.90;;
14381;SDS011;7275;50.328;8.720;2022-09-13T06:21:16;6.50;;;5.57;;
14381;SDS011;7275;50.328;8.720;2022-09-13T06:23:47;6.00;;;5.50;;
14381;SDS011;7275;50.328;8.720;2022-09-13T06:26:16;6.70;;;6.00;;
14381;SDS011;7275;50.328;8.720;2022-09-13T06:28:45;6.90;;;5.87;;
14381;SDS011;7275;50.328;8.720;2022-09-13T06:31:14;6.97;;;5.67;;
14381;SDS011;7275;50.328;8.720;2022-09-13T06:33:43;6.50;;;5.80;;
14381;SDS011;7275;50.328;8.720;2022-09-13T06:36:11;7.17;;;6.47;;
14381;SDS011;7275;50.328;8.720;2022-09-13T06:38:41;6.57;;;6.03;;
14381;SDS011;7275;50.328;8.720;2022-09-13T06:41:10;6.87;;;6.27;;
14381;SDS011;7275;50.328;8.720;2022-09-13T06:43:39;6.60;;;6.00;;
14381;SDS011;7275;50.328;8.720;2022-09-13T06:46:08;6.43;;;5.83;;
14381;SDS011;7275;50.328;8.720;2022-09-13T06:48:37;6.50;;;5.83;;
14381;SDS011;7275;50.328;8.720;2022-09-13T06:51:06;6.27;;;5.67;;
14381;SDS011;7275;50.328;8.720;2022-09-13T06:53:35;5.80;;;5.30;;
14381;SDS011;7275;50.328;8.720;2022-09-13T06:56:04;6.40;;;5.80;;
14381;SDS011;7275;50.328;8.720;2022-09-13T06:58:35;5.93;;;5.43;;
14381;SDS011;7275;50.328;8.720;2022-09-13T07:01:10;6.43;;;5.83;;
14381;SDS011;7275;50.328;8.720;2022-09-13T07:03:40;6.90;;;6.20;;
14381;SDS011;7275;50.328;8.720;2022-09-13T07:06:09;6.13;;;5.63;;
14381;SDS011;7275;50.328;8.720;2022-09-13T07:08:38;6.57;;;6.03;;
14381;SDS011;7275;50.328;8.720;2022-09-13T07:11:06;6.33;;;5.83;;
14381;SDS011;7275;50.328;8.720;2022-09-13T07:13:35;6.13;;;5.63;;
14381;SDS011;7275;50.328;8.720;2022-09-13T07:16:04;6.43;;;5.83;;
14381;SDS011;7275;50.328;8.720;2022-09-13T07:18:32;6.97;;;6.37;;
14381;SDS011;7275;50.328;8.720;2022-09-13T07:21:01;6.33;;;5.73;;
14381;SDS011;7275;50.328;8.720;2022-09-13T07:23:29;6.80;;;6.20;;
14381;SDS011;7275;50.328;8.720;2022-09-13T07:25:58;6.90;;;6.30;;
14381;SDS011;7275;50.328;8.720;2022-09-13T07:28:30;6.63;;;5.97;;
14381;SDS011;7275;50.328;8.720;2022-09-13T07:31:05;6.80;;;6.10;;
14381;SDS011;7275;50.328;8.720;2022-09-13T07:33:35;6.87;;;6.27;;
14381;SDS011;7275;50.328;8.720;2022-09-13T07:36:03;6.57;;;5.97;;
14381;SDS011;7275;50.328;8.720;2022-09-13T07:38:33;7.07;;;6.47;;
14381;SDS011;7275;50.328;8.720;2022-09-13T07:41:01;6.83;;;6.23;;
14381;SDS011;7275;50.328;8.720;2022-09-13T07:43:31;6.57;;;5.97;;
14381;SDS011;7275;50.328;8.720;2022-09-13T07:46:00;7.03;;;6.37;;
14381;SDS011;7275;50.328;8.720;2022-09-13T07:48:31;6.63;;;6.03;;
14381;SDS011;7275;50.328;8.720;2022-09-13T07:51:01;6.93;;;6.33;;
14381;SDS011;7275;50.328;8.720;2022-09-13T07:53:30;7.27;;;6.60;;
14381;SDS011;7275;50.328;8.720;2022-09-13T07:55:59;7.37;;;6.67;;
14381;SDS011;7275;50.328;8.720;2022-09-13T07:58:28;6.80;;;6.10;;
14381;SDS011;7275;50.328;8.720;2022-09-13T08:00:57;6.93;;;6.33;;
14381;SDS011;7275;50.328;8.720;2022-09-13T08:03:33;7.17;;;6.37;;
14381;SDS011;7275;50.328;8.720;2022-09-13T08:06:02;6.87;;;6.27;;
14381;SDS011;7275;50.328;8.720;2022-09-13T08:08:30;7.03;;;6.23;;
14381;SDS011;7275;50.328;8.720;2022-09-13T08:10:59;7.00;;;6.40;;
14381;SDS011;7275;50.328;8.720;2022-09-13T08:13:28;7.33;;;6.63;;
14381;SDS011;7275;50.328;8.720;2022-09-13T08:15:59;7.60;;;6.80;;
14381;SDS011;7275;50.328;8.720;2022-09-13T08:18:28;7.63;;;6.90;;
14381;SDS011;7275;50.328;8.720;2022-09-13T08:20:58;7.53;;;6.83;;
14381;SDS011;7275;50.328;8.720;2022-09-13T08:23:26;7.33;;;6.63;;
14381;SDS011;7275;50.328;8.720;2022-09-13T08:25:53;7.43;;;6.80;;
14381;SDS011;7275;50.328;8.720;2022-09-13T08:28:26;7.97;;;7.27;;
14381;SDS011;7275;50.328;8.720;2022-09-13T08:30:53;8.20;;;7.33;;
14381;SDS011;7275;50.328;8.720;2022-09-13T08:33:21;8.33;;;7.53;;
14381;SDS011;7275;50.328;8.720;2022-09-13T08:35:49;8.40;;;7.60;;
14381;SDS011;7275;50.328;8.720;2022-09-13T08:38:18;11.57;;;8.50;;
14381;SDS011;7275;50.328;8.720;2022-09-13T08:40:47;8.63;;;7.73;;
14381;SDS011;7275;50.328;8.720;2022-09-13T08:43:19;8.73;;;7.60;;
14381;SDS011;7275;50.328;8.720;2022-09-13T08:46:00;8.13;;;7.43;;
14381;SDS011;7275;50.328;8.720;2022-09-13T08:48:32;7.83;;;7.13;;
14381;SDS011;7275;50.328;8.720;2022-09-13T08:51:02;7.83;;;7.13;;
14381;SDS011;7275;50.328;8.720;2022-09-13T08:53:37;8.13;;;7.43;;
14381;SDS011;7275;50.328;8.720;2022-09-13T08:56:09;8.17;;;7.37;;
14381;SDS011;7275;50.328;8.720;2022-09-13T08:58:42;8.83;;;7.93;;
14381;SDS011;7275;50.328;8.720;2022-09-13T09:01:28;7.50;;;6.83;;
14381;SDS011;7275;50.328;8.720;2022-09-13T09:04:05;8.20;;;7.40;;
14381;SDS011;7275;50.328;8.720;2022-09-13T09:06:41;8.43;;;7.63;;
14381;SDS011;7275;50.328;8.720;2022-09-13T09:09:12;7.35;;;6.65;;
14381;SDS011;7275;50.328;8.720;2022-09-13T09:11:43;8.27;;;7.47;;
14381;SDS011;7275;50.328;8.720;2022-09-13T09:14:18;8.52;;;7.63;;
14381;SDS011;7275;50.328;8.720;2022-09-13T09:16:51;8.33;;;7.47;;
14381;SDS011;7275;50.328;8.720;2022-09-13T09:19:21;9.15;;;8.25;;
14381;SDS011;7275;50.328;8.720;2022-09-13T09:21:55;8.33;;;7.57;;
14381;SDS011;7275;50.328;8.720;2022-09-13T09:24:25;8.50;;;7.70;;
14381;SDS011;7275;50.328;8.720;2022-09-13T09:26:53;8.63;;;7.77;;
14381;SDS011;7275;50.328;8.720;2022-09-13T09:29:23;7.90;;;7.20;;
14381;SDS011;7275;50.328;8.720;2022-09-13T09:31:56;8.17;;;7.37;;
14381;SDS011;7275;50.328;8.720;2022-09-13T09:34:38;8.73;;;7.60;;
14381;SDS011;7275;50.328;8.720;2022-09-13T09:37:18;8.37;;;7.67;;
14381;SDS011;7275;50.328;8.720;2022-09-13T09:39:48;8.30;;;7.43;;
14381;SDS011;7275;50.328;8.720;2022-09-13T09:42:18;7.77;;;7.07;;
14381;SDS011;7275;50.328;8.720;2022-09-13T09:44:47;8.30;;;6.97;;
14381;SDS011;7275;50.328;8.720;2022-09-13T09:47:18;7.70;;;6.90;;
14381;SDS011;7275;50.328;8.720;2022-09-13T09:49:54;7.13;;;6.10;;
14381;SDS011;7275;50.328;8.720;2022-09-13T09:52:37;5.97;;;5.38;;
14381;SDS011;7275;50.328;8.720;2022-09-13T09:55:16;6.45;;;5.45;;
14381;SDS011;7275;50.328;8.720;2022-09-13T09:57:48;6.10;;;5.45;;
14381;SDS011;7275;50.328;8.720;2022-09-13T10:00:17;5.47;;;4.90;;
14381;SDS011;7275;50.328;8.720;2022-09-13T10:02:46;5.32;;;4.82;;
14381;SDS011;7275;50.328;8.720;2022-09-13T10:05:17;5.43;;;4.90;;
14381;SDS011;7275;50.328;8.720;2022-09-13T10:07:51;5.97;;;4.37;;
14381;SDS011;7275;50.328;8.720;2022-09-13T10:10:23;4.95;;;4.55;;
14381;SDS011;7275;50.328;8.720;2022-09-13T10:12:53;4.20;;;3.87;;
14381;SDS011;7275;50.328;8.720;2022-09-13T10:15:23;4.70;;;4.30;;
14381;SDS011;7275;50.328;8.720;2022-09-13T10:18:04;6.93;;;4.17;;
14381;SDS011;7275;50.328;8.720;2022-09-13T10:21:00;4.47;;;4.03;;
14381;SDS011;7275;50.328;8.720;2022-09-13T10:23:31;4.53;;;4.13;;
14381;SDS011;7275;50.328;8.720;2022-09-13T10:26:02;4.47;;;4.03;;
14381;SDS011;7275;50.328;8.720;2022-09-13T10:28:34;5.15;;;4.50;;
14381;SDS011;7275;50.328;8.720;2022-09-13T10:31:08;5.43;;;4.93;;
14381;SDS011;7275;50.328;8.720;2022-09-13T10:33:43;5.20;;;4.70;;
14381;SDS011;7275;50.328;8.720;2022-09-13T10:36:23;5.25;;;4.75;;
14381;SDS011;7275;50.328;8.720;2022-09-13T10:39:16;4.93;;;4.45;;
14381;SDS011;7275;50.328;8.720;2022-09-13T10:41:49;5.22;;;4.72;;
14381;SDS011;7275;50.328;8.720;2022-09-13T10:44:22;8.40;;;4.85;;
14381;SDS011;7275;50.328;8.720;2022-09-13T10:46:54;6.40;;;4.93;;
14381;SDS011;7275;50.328;8.720;2022-09-13T10:49:39;5.55;;;5.05;;
14381;SDS011;7275;50.328;8.720;2022-09-13T10:52:22;5.18;;;4.75;;
14381;SDS011;7275;50.328;8.720;2022-09-13T10:54:52;6.10;;;5.07;;
14381;SDS011;7275;50.328;8.720;2022-09-13T10:57:34;5.55;;;5.03;;
14381;SDS011;7275;50.328;8.720;2022-09-13T11:00:04;6.05;;;4.82;;
14381;SDS011;7275;50.328;8.720;2022-09-13T11:02:47;5.40;;;4.90;;
14381;SDS011;7275;50.328;8.720;2022-09-13T11:05:26;5.40;;;4.90;;
14381;SDS011;7275;50.328;8.720;2022-09-13T11:10:57;4.97;;;4.57;;
14381;SDS011;7275;50.328;8.720;2022-09-13T11:13:36;5.50;;;4.35;;
14381;SDS011;7275;50.328;8.720;2022-09-13T11:16:18;6.57;;;4.72;;
14381;SDS011;7275;50.328;8.720;2022-09-13T11:19:00;4.88;;;4.43;;
14381;SDS011;7275;50.328;8.720;2022-09-13T11:21:51;4.53;;;4.13;;
14381;SDS011;7275;50.328;8.720;2022-09-13T11:27:29;4.68;;;4.28;;
14381;SDS011;7275;50.328;8.720;2022-09-13T11:30:10;4.90;;;4.43;;
14381;SDS011;7275;50.328;8.720;2022-09-13T11:35:35;4.70;;;4.30;;
14381;SDS011;7275;50.328;8.720;2022-09-13T11:38:16;4.53;;;4.13;;
14381;SDS011;7275;50.328;8.720;2022-09-13T11:40:59;6.07;;;3.95;;
14381;SDS011;7275;50.328;8.720;2022-09-13T11:43:43;4.78;;;4.38;;
14381;SDS011;7275;50.328;8.720;2022-09-13T11:46:25;4.63;;;4.20;;
14381;SDS011;7275;50.328;8.720;2022-09-13T11:49:10;5.85;;;4.55;;
14381;SDS011;7275;50.328;8.720;2022-09-13T11:52:02;4.43;;;4.03;;
14381;SDS011;7275;50.328;8.720;2022-09-13T11:54:44;4.80;;;4.30;;
14381;SDS011;7275;50.328;8.720;2022-09-13T11:57:22;4.50;;;4.10;;
14381;SDS011;7275;50.328;8.720;2022-09-13T11:59:53;4.60;;;4.20;;
14381;SDS011;7275;50.328;8.720;2022-09-13T12:02:27;6.43;;;4.13;;
14381;SDS011;7275;50.328;8.720;2022-09-13T12:05:03;4.63;;;4.22;;
14381;SDS011;7275;50.328;8.720;2022-09-13T12:07:50;4.07;;;3.78;;
14381;SDS011;7275;50.328;8.720;2022-09-13T12:10:22;3.90;;;3.50;;
14381;SDS011;7275;50.328;8.720;2022-09-13T12:12:53;4.60;;;3.50;;
14381;SDS011;7275;50.328;8.720;2022-09-13T12:15:28;4.50;;;3.35;;
14381;SDS011;7275;50.328;8.720;2022-09-13T12:18:04;6.65;;;3.90;;
14381;SDS011;7275;50.328;8.720;2022-09-13T12:20:38;4.63;;;3.47;;
14381;SDS011;7275;50.328;8.720;2022-09-13T12:23:10;4.28;;;3.88;;
14381;SDS011;7275;50.328;8.720;2022-09-13T12:25:45;3.60;;;3.30;;
14381;SDS011;7275;50.328;8.720;2022-09-13T12:28:17;3.97;;;3.58;;
14381;SDS011;7275;50.328;8.720;2022-09-13T12:30:51;4.18;;;3.67;;
14381;SDS011;7275;50.328;8.720;2022-09-13T12:33:24;3.80;;;3.15;;
14381;SDS011;7275;50.328;8.720;2022-09-13T12:36:06;4.35;;;3.20;;
14381;SDS011;7275;50.328;8.720;2022-09-13T12:39:01;3.38;;;3.08;;
14381;SDS011;7275;50.328;8.720;2022-09-13T12:41:44;3.45;;;3.15;;
14381;SDS011;7275;50.328;8.720;2022-09-13T12:44:35;3.33;;;3.00;;
14381;SDS011;7275;50.328;8.720;2022-09-13T12:47:15;3.15;;;2.90;;
14381;SDS011;7275;50.328;8.720;2022-09-13T12:50:11;3.08;;;2.67;;
14381;SDS011;7275;50.328;8.720;2022-09-13T12:53:12;3.45;;;2.75;;
14381;SDS011;7275;50.328;8.720;2022-09-13T12:55:55;3.10;;;2.80;;
14381;SDS011;7275;50.328;8.720;2022-09-13T12:58:46;2.80;;;2.60;;
14381;SDS011;7275;50.328;8.720;2022-09-13T13:01:29;2.75;;;2.42;;
14381;SDS011;7275;50.328;8.720;2022-09-13T13:03:59;2.60;;;2.40;;
14381;SDS011;7275;50.328;8.720;2022-09-13T13:06:32;2.60;;;2.40;;
14381;SDS011;7275;50.328;8.720;2022-09-13T13:09:03;2.60;;;2.40;;
14381;SDS011;7275;50.328;8.720;2022-09-13T13:11:41;2.70;;;2.15;;
14381;SDS011;7275;50.328;8.720;2022-09-13T13:23:19;2.53;;;2.28;;
14381;SDS011;7275;50.328;8.720;2022-09-13T13:26:04;2.42;;;2.20;;
14381;SDS011;7275;50.328;8.720;2022-09-13T13:28:51;3.25;;;2.30;;
14381;SDS011;7275;50.328;8.720;2022-09-13T13:31:41;2.75;;;2.28;;
14381;SDS011;7275;50.328;8.720;2022-09-13T13:34:30;2.53;;;2.10;;
14381;SDS011;7275;50.328;8.720;2022-09-13T13:37:25;2.67;;;2.30;;
14381;SDS011;7275;50.328;8.720;2022-09-13T13:40:12;2.97;;;2.40;;
14381;SDS011;7275;50.328;8.720;2022-09-13T13:48:40;2.55;;;2.28;;
14381;SDS011;7275;50.328;8.720;2022-09-13T13:51:18;2.50;;;1.90;;
14381;SDS011;7275;50.328;8.720;2022-09-13T13:53:49;1.88;;;1.77;;
14381;SDS011;7275;50.328;8.720;2022-09-13T13:56:25;2.17;;;1.95;;
14381;SDS011;7275;50.328;8.720;2022-09-13T13:58:57;3.00;;;2.00;;
14381;SDS011;7275;50.328;8.720;2022-09-13T14:01:32;2.45;;;1.85;;
14381;SDS011;7275;50.328;8.720;2022-09-13T14:07:21;2.00;;;1.85;;
14381;SDS011;7275;50.328;8.720;2022-09-13T14:10:00;2.75;;;1.85;;
14381;SDS011;7275;50.328;8.720;2022-09-13T14:12:35;2.20;;;1.90;;
14381;SDS011;7275;50.328;8.720;2022-09-13T14:15:17;2.63;;;1.90;;
14381;SDS011;7275;50.328;8.720;2022-09-13T14:18:00;2.72;;;2.30;;
14381;SDS011;7275;50.328;8.720;2022-09-13T14:20:56;2.97;;;2.22;;
14381;SDS011;7275;50.328;8.720;2022-09-13T14:23:28;3.90;;;2.28;;
14381;SDS011;7275;50.328;8.720;2022-09-13T14:25:57;2.55;;;2.35;;
14381;SDS011;7275;50.328;8.720;2022-09-13T14:28:27;2.60;;;2.30;;
14381;SDS011;7275;50.328;8.720;2022-09-13T14:30:56;2.50;;;2.20;;
14381;SDS011;7275;50.328;8.720;2022-09-13T14:33:25;2.40;;;1.90;;
14381;SDS011;7275;50.328;8.720;2022-09-13T14:35:58;2.28;;;2.08;;
14381;SDS011;7275;50.328;8.720;2022-09-13T14:38:28;2.70;;;2.22;;
14381;SDS011;7275;50.328;8.720;2022-09-13T14:41:01;3.40;;;2.30;;
14381;SDS011;7275;50.328;8.720;2022-09-13T14:43:40;1.98;;;1.65;;
14381;SDS011;7275;50.328;8.720;2022-09-13T14:46:09;2.85;;;2.17;;
14381;SDS011;7275;50.328;8.720;2022-09-13T14:48:41;2.25;;;2.00;;
14381;SDS011;7275;50.328;8.720;2022-09-13T14:51:14;3.00;;;2.42;;
14381;SDS011;7275;50.328;8.720;2022-09-13T14:53:44;2.13;;;1.98;;
14381;SDS011;7275;50.328;8.720;2022-09-13T14:56:16;2.65;;;2.00;;
14381;SDS011;7275;50.328;8.720;2022-09-13T14:58:51;3.00;;;2.08;;
14381;SDS011;7275;50.328;8.720;2022-09-13T15:01:25;2.22;;;2.03;;
14381;SDS011;7275;50.328;8.720;2022-09-13T15:03:56;2.65;;;1.92;;
14381;SDS011;7275;50.328;8.720;2022-09-13T15:06:26;3.42;;;2.20;;
14381;SDS011;7275;50.328;8.720;2022-09-13T15:08:56;2.10;;;1.90;;
14381;SDS011;7275;50.328;8.720;2022-09-13T15:11:28;2.25;;;2.05;;
14381;SDS011;7275;50.328;8.720;2022-09-13T15:14:02;2.83;;;1.73;;
14381;SDS011;7275;50.328;8.720;2022-09-13T15:16:46;2.30;;;2.10;;
14381;SDS011;7275;50.328;8.720;2022-09-13T15:19:15;2.78;;;2.15;;
14381;SDS011;7275;50.328;8.720;2022-09-13T15:21:44;2.20;;;1.90;;
14381;SDS011;7275;50.328;8.720;2022-09-13T15:24:17;2.45;;;2.05;;
14381;SDS011;7275;50.328;8.720;2022-09-13T15:26:47;2.50;;;1.92;;
14381;SDS011;7275;50.328;8.720;2022-09-13T15:29:16;2.22;;;2.00;;
14381;SDS011;7275;50.328;8.720;2022-09-13T15:31:45;2.42;;;2.00;;
14381;SDS011;7275;50.328;8.720;2022-09-13T15:34:19;2.40;;;1.85;;
14381;SDS011;7275;50.328;8.720;2022-09-13T15:36:49;2.08;;;1.90;;
14381;SDS011;7275;50.328;8.720;2022-09-13T15:39:29;2.63;;;2.20;;
14381;SDS011;7275;50.328;8.720;2022-09-13T15:42:08;2.10;;;1.90;;
14381;SDS011;7275;50.328;8.720;2022-09-13T15:44:37;2.20;;;2.00;;
14381;SDS011;7275;50.328;8.720;2022-09-13T15:47:08;3.17;;;2.00;;
14381;SDS011;7275;50.328;8.720;2022-09-13T15:49:38;2.70;;;2.30;;
14381;SDS011;7275;50.328;8.720;2022-09-13T15:52:06;2.20;;;1.95;;
14381;SDS011;7275;50.328;8.720;2022-09-13T15:54:35;4.15;;;2.10;;
14381;SDS011;7275;50.328;8.720;2022-09-13T15:57:06;2.97;;;2.17;;
14381;SDS011;7275;50.328;8.720;2022-09-13T15:59:35;2.25;;;1.85;;
14381;SDS011;7275;50.328;8.720;2022-09-13T16:02:13;2.17;;;1.98;;
14381;SDS011;7275;50.328;8.720;2022-09-13T16:04:44;1.98;;;1.77;;
14381;SDS011;7275;50.328;8.720;2022-09-13T16:07:11;2.38;;;1.95;;